Terminal Aerodrome Forecast
Issued by NWS

Home | Current Version | Previous Version | Text Only | Print | Product List | Glossary On
Versions: 1 2 3 4 5 6 7 8 9 10 11 12 13 14 15 16
000
FTUS43 KDLH 301737
TAFHYR
TAF
KHYR 301737Z 3018/0118 04010KT P6SM BKN090
     FM302300 05013G21KT P6SM VCSH OVC045
     FM010300 05012G22KT P6SM RA OVC025
     FM010700 05012G22KT P6SM RA OVC010
     FM011000 05011G21KT 4SM RA OVC007
     FM011400 03009G17KT 2SM -SN OVC003=

USA.gov is the U.S. government's official web portal to all federal, state and local government web resources and services.